sensor_id;sensor_type;location;lat;lon;timestamp;P1;durP1;ratioP1;P2;durP2;ratioP2
74670;SDS011;63196;39.564;2.628;2022-11-02T00:02:09;9.00;;;5.20;;
74670;SDS011;63196;39.564;2.628;2022-11-02T00:04:35;10.90;;;6.30;;
74670;SDS011;63196;39.564;2.628;2022-11-02T00:07:00;10.80;;;5.30;;
74670;SDS011;63196;39.564;2.628;2022-11-02T00:09:25;10.70;;;5.40;;
74670;SDS011;63196;39.564;2.628;2022-11-02T00:11:51;10.60;;;6.50;;
74670;SDS011;63196;39.564;2.628;2022-11-02T00:14:16;10.60;;;5.70;;
74670;SDS011;63196;39.564;2.628;2022-11-02T00:16:41;9.70;;;5.70;;
74670;SDS011;63196;39.564;2.628;2022-11-02T00:19:07;7.90;;;4.70;;
74670;SDS011;63196;39.564;2.628;2022-11-02T00:21:34;9.30;;;6.10;;
74670;SDS011;63196;39.564;2.628;2022-11-02T00:23:59;9.80;;;6.10;;
74670;SDS011;63196;39.564;2.628;2022-11-02T00:26:26;10.70;;;6.50;;
74670;SDS011;63196;39.564;2.628;2022-11-02T00:28:52;11.80;;;5.30;;
74670;SDS011;63196;39.564;2.628;2022-11-02T00:31:18;9.70;;;5.70;;
74670;SDS011;63196;39.564;2.628;2022-11-02T00:33:43;10.80;;;5.80;;
74670;SDS011;63196;39.564;2.628;2022-11-02T00:36:08;11.00;;;5.90;;
74670;SDS011;63196;39.564;2.628;2022-11-02T00:38:34;12.60;;;5.60;;
74670;SDS011;63196;39.564;2.628;2022-11-02T00:40:59;10.00;;;6.20;;
74670;SDS011;63196;39.564;2.628;2022-11-02T00:43:25;12.20;;;6.00;;
74670;SDS011;63196;39.564;2.628;2022-11-02T00:45:50;9.50;;;4.90;;
74670;SDS011;63196;39.564;2.628;2022-11-02T00:48:15;11.70;;;5.50;;
74670;SDS011;63196;39.564;2.628;2022-11-02T00:50:41;11.20;;;5.00;;
74670;SDS011;63196;39.564;2.628;2022-11-02T00:53:06;9.90;;;5.30;;
74670;SDS011;63196;39.564;2.628;2022-11-02T00:55:32;9.60;;;4.80;;
74670;SDS011;63196;39.564;2.628;2022-11-02T00:57:57;9.00;;;5.30;;
74670;SDS011;63196;39.564;2.628;2022-11-02T01:00:22;9.20;;;4.60;;
74670;SDS011;63196;39.564;2.628;2022-11-02T01:02:48;9.70;;;4.70;;
74670;SDS011;63196;39.564;2.628;2022-11-02T01:05:13;7.70;;;3.80;;
74670;SDS011;63196;39.564;2.628;2022-11-02T01:07:38;10.20;;;4.40;;
74670;SDS011;63196;39.564;2.628;2022-11-02T01:10:04;10.50;;;4.90;;
74670;SDS011;63196;39.564;2.628;2022-11-02T01:12:30;10.00;;;4.90;;
74670;SDS011;63196;39.564;2.628;2022-11-02T01:14:55;10.60;;;4.90;;
74670;SDS011;63196;39.564;2.628;2022-11-02T01:17:21;7.80;;;4.40;;
74670;SDS011;63196;39.564;2.628;2022-11-02T01:19:46;6.30;;;3.80;;
74670;SDS011;63196;39.564;2.628;2022-11-02T01:22:12;8.00;;;4.10;;
74670;SDS011;63196;39.564;2.628;2022-11-02T01:24:37;9.60;;;4.60;;
74670;SDS011;63196;39.564;2.628;2022-11-02T01:27:02;10.00;;;4.50;;
74670;SDS011;63196;39.564;2.628;2022-11-02T01:29:28;7.40;;;3.70;;
74670;SDS011;63196;39.564;2.628;2022-11-02T01:31:53;11.30;;;4.00;;
74670;SDS011;63196;39.564;2.628;2022-11-02T01:34:19;8.70;;;3.30;;
74670;SDS011;63196;39.564;2.628;2022-11-02T01:36:45;7.50;;;3.80;;
74670;SDS011;63196;39.564;2.628;2022-11-02T01:39:12;10.30;;;5.00;;
74670;SDS011;63196;39.564;2.628;2022-11-02T01:41:38;7.90;;;4.30;;
74670;SDS011;63196;39.564;2.628;2022-11-02T01:44:21;6.70;;;3.10;;
74670;SDS011;63196;39.564;2.628;2022-11-02T01:46:48;6.50;;;3.30;;
74670;SDS011;63196;39.564;2.628;2022-11-02T01:49:15;8.20;;;3.50;;
74670;SDS011;63196;39.564;2.628;2022-11-02T01:54:09;10.50;;;3.90;;
74670;SDS011;63196;39.564;2.628;2022-11-02T01:56:36;5.30;;;2.90;;
74670;SDS011;63196;39.564;2.628;2022-11-02T01:59:03;7.00;;;2.80;;
74670;SDS011;63196;39.564;2.628;2022-11-02T02:01:30;7.30;;;3.10;;
74670;SDS011;63196;39.564;2.628;2022-11-02T02:03:55;6.80;;;3.00;;
74670;SDS011;63196;39.564;2.628;2022-11-02T02:06:22;7.30;;;3.50;;
74670;SDS011;63196;39.564;2.628;2022-11-02T02:08:50;8.60;;;2.90;;
74670;SDS011;63196;39.564;2.628;2022-11-02T02:11:35;7.00;;;3.10;;
74670;SDS011;63196;39.564;2.628;2022-11-02T02:14:08;5.80;;;2.40;;
74670;SDS011;63196;39.564;2.628;2022-11-02T02:19:00;8.70;;;3.00;;
74670;SDS011;63196;39.564;2.628;2022-11-02T02:26:56;7.90;;;2.70;;
74670;SDS011;63196;39.564;2.628;2022-11-02T02:29:27;8.00;;;4.00;;
74670;SDS011;63196;39.564;2.628;2022-11-02T02:31:56;8.20;;;3.90;;
74670;SDS011;63196;39.564;2.628;2022-11-02T02:36:49;7.80;;;3.60;;
74670;SDS011;63196;39.564;2.628;2022-11-02T02:39:22;11.00;;;4.90;;
74670;SDS011;63196;39.564;2.628;2022-11-02T02:44:21;8.30;;;3.10;;
74670;SDS011;63196;39.564;2.628;2022-11-02T02:46:52;7.70;;;3.60;;
74670;SDS011;63196;39.564;2.628;2022-11-02T02:49:20;7.50;;;4.00;;
74670;SDS011;63196;39.564;2.628;2022-11-02T02:51:47;9.10;;;4.00;;
74670;SDS011;63196;39.564;2.628;2022-11-02T02:54:19;6.20;;;3.20;;
74670;SDS011;63196;39.564;2.628;2022-11-02T02:56:47;9.10;;;4.10;;
74670;SDS011;63196;39.564;2.628;2022-11-02T02:59:24;7.70;;;3.50;;
74670;SDS011;63196;39.564;2.628;2022-11-02T03:01:51;7.90;;;3.80;;
74670;SDS011;63196;39.564;2.628;2022-11-02T03:04:18;9.60;;;4.40;;
74670;SDS011;63196;39.564;2.628;2022-11-02T03:06:45;9.90;;;4.90;;
74670;SDS011;63196;39.564;2.628;2022-11-02T03:09:21;8.70;;;5.10;;
74670;SDS011;63196;39.564;2.628;2022-11-02T03:11:58;9.90;;;5.10;;
74670;SDS011;63196;39.564;2.628;2022-11-02T03:14:32;9.60;;;4.90;;
74670;SDS011;63196;39.564;2.628;2022-11-02T03:17:06;6.50;;;3.60;;
74670;SDS011;63196;39.564;2.628;2022-11-02T03:19:43;6.90;;;3.90;;
74670;SDS011;63196;39.564;2.628;2022-11-02T03:22:17;10.00;;;3.90;;
74670;SDS011;63196;39.564;2.628;2022-11-02T03:24:46;8.30;;;4.20;;
74670;SDS011;63196;39.564;2.628;2022-11-02T03:30:01;9.00;;;4.40;;
74670;SDS011;63196;39.564;2.628;2022-11-02T03:32:35;11.60;;;4.70;;
74670;SDS011;63196;39.564;2.628;2022-11-02T03:35:02;12.20;;;5.00;;
74670;SDS011;63196;39.564;2.628;2022-11-02T03:37:28;8.30;;;4.90;;
74670;SDS011;63196;39.564;2.628;2022-11-02T03:40:06;7.80;;;4.30;;
74670;SDS011;63196;39.564;2.628;2022-11-02T03:42:35;9.00;;;3.80;;
74670;SDS011;63196;39.564;2.628;2022-11-02T03:45:03;10.00;;;4.50;;
74670;SDS011;63196;39.564;2.628;2022-11-02T03:47:31;8.60;;;4.20;;
74670;SDS011;63196;39.564;2.628;2022-11-02T03:49:58;8.00;;;4.30;;
74670;SDS011;63196;39.564;2.628;2022-11-02T03:52:25;8.60;;;3.90;;
74670;SDS011;63196;39.564;2.628;2022-11-02T03:57:18;9.30;;;4.50;;
74670;SDS011;63196;39.564;2.628;2022-11-02T03:59:44;8.60;;;4.70;;
74670;SDS011;63196;39.564;2.628;2022-11-02T04:02:09;10.30;;;5.40;;
74670;SDS011;63196;39.564;2.628;2022-11-02T04:04:45;9.80;;;4.30;;
74670;SDS011;63196;39.564;2.628;2022-11-02T04:07:11;10.10;;;4.60;;
74670;SDS011;63196;39.564;2.628;2022-11-02T04:09:37;9.70;;;4.00;;
74670;SDS011;63196;39.564;2.628;2022-11-02T04:12:02;10.80;;;4.20;;
74670;SDS011;63196;39.564;2.628;2022-11-02T04:14:46;12.00;;;4.30;;
74670;SDS011;63196;39.564;2.628;2022-11-02T04:17:12;9.30;;;4.90;;
74670;SDS011;63196;39.564;2.628;2022-11-02T04:19:56;8.50;;;4.60;;
74670;SDS011;63196;39.564;2.628;2022-11-02T04:22:21;9.90;;;4.80;;
74670;SDS011;63196;39.564;2.628;2022-11-02T04:25:06;10.50;;;4.70;;
74670;SDS011;63196;39.564;2.628;2022-11-02T04:27:47;9.40;;;4.90;;
74670;SDS011;63196;39.564;2.628;2022-11-02T04:30:15;7.20;;;4.30;;
74670;SDS011;63196;39.564;2.628;2022-11-02T04:32:43;8.90;;;4.10;;
74670;SDS011;63196;39.564;2.628;2022-11-02T04:35:28;10.20;;;4.70;;
74670;SDS011;63196;39.564;2.628;2022-11-02T04:37:53;8.50;;;4.90;;
74670;SDS011;63196;39.564;2.628;2022-11-02T04:40:37;7.40;;;4.70;;
74670;SDS011;63196;39.564;2.628;2022-11-02T04:43:03;10.70;;;4.30;;
74670;SDS011;63196;39.564;2.628;2022-11-02T04:45:28;11.00;;;4.70;;
74670;SDS011;63196;39.564;2.628;2022-11-02T04:48:05;8.90;;;4.30;;
74670;SDS011;63196;39.564;2.628;2022-11-02T04:50:31;9.50;;;5.00;;
74670;SDS011;63196;39.564;2.628;2022-11-02T04:53:01;8.40;;;3.80;;
74670;SDS011;63196;39.564;2.628;2022-11-02T04:55:27;9.40;;;4.20;;
74670;SDS011;63196;39.564;2.628;2022-11-02T04:57:52;9.30;;;4.20;;
74670;SDS011;63196;39.564;2.628;2022-11-02T05:00:19;8.10;;;3.70;;
74670;SDS011;63196;39.564;2.628;2022-11-02T05:02:45;9.10;;;4.40;;
74670;SDS011;63196;39.564;2.628;2022-11-02T05:05:11;10.80;;;4.20;;
74670;SDS011;63196;39.564;2.628;2022-11-02T05:07:37;8.60;;;4.00;;
74670;SDS011;63196;39.564;2.628;2022-11-02T05:10:02;7.40;;;3.70;;
74670;SDS011;63196;39.564;2.628;2022-11-02T05:12:28;10.40;;;4.70;;
74670;SDS011;63196;39.564;2.628;2022-11-02T05:14:53;10.10;;;4.30;;
74670;SDS011;63196;39.564;2.628;2022-11-02T05:17:19;9.80;;;6.00;;
74670;SDS011;63196;39.564;2.628;2022-11-02T05:19:44;8.40;;;3.90;;
74670;SDS011;63196;39.564;2.628;2022-11-02T05:22:09;7.80;;;3.90;;
74670;SDS011;63196;39.564;2.628;2022-11-02T05:24:35;11.90;;;4.20;;
74670;SDS011;63196;39.564;2.628;2022-11-02T05:27:00;8.00;;;4.30;;
74670;SDS011;63196;39.564;2.628;2022-11-02T05:29:26;8.00;;;3.70;;
74670;SDS011;63196;39.564;2.628;2022-11-02T05:31:51;10.20;;;4.00;;
74670;SDS011;63196;39.564;2.628;2022-11-02T05:34:17;6.80;;;3.50;;
74670;SDS011;63196;39.564;2.628;2022-11-02T05:36:42;8.20;;;3.80;;
74670;SDS011;63196;39.564;2.628;2022-11-02T05:39:08;9.10;;;4.40;;
74670;SDS011;63196;39.564;2.628;2022-11-02T05:41:33;7.10;;;3.50;;
74670;SDS011;63196;39.564;2.628;2022-11-02T05:43:58;7.80;;;3.80;;
74670;SDS011;63196;39.564;2.628;2022-11-02T05:46:24;9.90;;;5.10;;
74670;SDS011;63196;39.564;2.628;2022-11-02T05:48:49;8.40;;;3.70;;
74670;SDS011;63196;39.564;2.628;2022-11-02T05:51:15;7.10;;;3.60;;
74670;SDS011;63196;39.564;2.628;2022-11-02T05:53:40;9.90;;;5.40;;
74670;SDS011;63196;39.564;2.628;2022-11-02T05:56:06;8.90;;;4.80;;
74670;SDS011;63196;39.564;2.628;2022-11-02T05:58:32;10.20;;;5.30;;
74670;SDS011;63196;39.564;2.628;2022-11-02T06:01:02;9.10;;;4.90;;
74670;SDS011;63196;39.564;2.628;2022-11-02T06:03:27;8.50;;;3.50;;
74670;SDS011;63196;39.564;2.628;2022-11-02T06:05:57;9.10;;;4.40;;
74670;SDS011;63196;39.564;2.628;2022-11-02T06:08:22;8.80;;;4.10;;
74670;SDS011;63196;39.564;2.628;2022-11-02T06:10:48;8.90;;;3.70;;
74670;SDS011;63196;39.564;2.628;2022-11-02T06:13:13;9.40;;;4.00;;
74670;SDS011;63196;39.564;2.628;2022-11-02T06:15:39;8.60;;;4.20;;
74670;SDS011;63196;39.564;2.628;2022-11-02T06:18:04;7.80;;;4.30;;
74670;SDS011;63196;39.564;2.628;2022-11-02T06:20:29;11.70;;;5.30;;
74670;SDS011;63196;39.564;2.628;2022-11-02T06:22:55;8.60;;;4.90;;
74670;SDS011;63196;39.564;2.628;2022-11-02T06:25:20;8.80;;;4.30;;
74670;SDS011;63196;39.564;2.628;2022-11-02T06:27:49;10.90;;;3.90;;
74670;SDS011;63196;39.564;2.628;2022-11-02T06:30:15;7.60;;;4.20;;
74670;SDS011;63196;39.564;2.628;2022-11-02T06:32:44;10.70;;;4.70;;
74670;SDS011;63196;39.564;2.628;2022-11-02T06:35:10;6.70;;;4.10;;
74670;SDS011;63196;39.564;2.628;2022-11-02T06:37:36;9.20;;;4.70;;
74670;SDS011;63196;39.564;2.628;2022-11-02T06:40:02;10.70;;;5.50;;
74670;SDS011;63196;39.564;2.628;2022-11-02T06:42:27;12.00;;;4.90;;
74670;SDS011;63196;39.564;2.628;2022-11-02T06:44:53;8.60;;;4.80;;
74670;SDS011;63196;39.564;2.628;2022-11-02T06:47:18;9.10;;;3.60;;
74670;SDS011;63196;39.564;2.628;2022-11-02T06:49:43;11.10;;;4.70;;
74670;SDS011;63196;39.564;2.628;2022-11-02T06:52:09;12.30;;;5.30;;
74670;SDS011;63196;39.564;2.628;2022-11-02T06:54:34;11.80;;;5.70;;
74670;SDS011;63196;39.564;2.628;2022-11-02T06:57:00;8.40;;;5.20;;
74670;SDS011;63196;39.564;2.628;2022-11-02T06:59:25;11.80;;;5.90;;
74670;SDS011;63196;39.564;2.628;2022-11-02T07:01:51;10.20;;;5.90;;
74670;SDS011;63196;39.564;2.628;2022-11-02T07:04:18;13.10;;;4.80;;
74670;SDS011;63196;39.564;2.628;2022-11-02T07:06:44;12.80;;;5.00;;
74670;SDS011;63196;39.564;2.628;2022-11-02T07:09:09;10.10;;;4.60;;
74670;SDS011;63196;39.564;2.628;2022-11-02T07:11:35;9.10;;;4.80;;
74670;SDS011;63196;39.564;2.628;2022-11-02T07:14:01;11.10;;;6.10;;
74670;SDS011;63196;39.564;2.628;2022-11-02T07:16:26;11.20;;;5.70;;
74670;SDS011;63196;39.564;2.628;2022-11-02T07:18:51;10.80;;;4.70;;
74670;SDS011;63196;39.564;2.628;2022-11-02T07:21:17;10.30;;;5.20;;
74670;SDS011;63196;39.564;2.628;2022-11-02T07:23:42;8.90;;;4.90;;
74670;SDS011;63196;39.564;2.628;2022-11-02T07:26:07;12.30;;;5.00;;
74670;SDS011;63196;39.564;2.628;2022-11-02T07:28:33;11.40;;;6.10;;
74670;SDS011;63196;39.564;2.628;2022-11-02T07:31:00;10.20;;;6.30;;
74670;SDS011;63196;39.564;2.628;2022-11-02T07:33:26;11.20;;;5.50;;
74670;SDS011;63196;39.564;2.628;2022-11-02T07:35:51;8.60;;;5.10;;
74670;SDS011;63196;39.564;2.628;2022-11-02T07:38:17;12.00;;;6.10;;
74670;SDS011;63196;39.564;2.628;2022-11-02T07:40:42;11.20;;;5.40;;
74670;SDS011;63196;39.564;2.628;2022-11-02T07:43:07;10.60;;;5.70;;
74670;SDS011;63196;39.564;2.628;2022-11-02T07:45:33;10.40;;;6.20;;
74670;SDS011;63196;39.564;2.628;2022-11-02T07:47:58;16.80;;;7.30;;
74670;SDS011;63196;39.564;2.628;2022-11-02T07:50:24;12.80;;;6.70;;
74670;SDS011;63196;39.564;2.628;2022-11-02T07:52:51;14.20;;;6.60;;
74670;SDS011;63196;39.564;2.628;2022-11-02T07:55:18;9.40;;;6.00;;
74670;SDS011;63196;39.564;2.628;2022-11-02T07:57:52;14.90;;;5.90;;
74670;SDS011;63196;39.564;2.628;2022-11-02T08:00:18;11.50;;;5.40;;
74670;SDS011;63196;39.564;2.628;2022-11-02T08:02:43;18.30;;;7.00;;
74670;SDS011;63196;39.564;2.628;2022-11-02T08:05:09;15.80;;;6.10;;
74670;SDS011;63196;39.564;2.628;2022-11-02T08:07:34;12.40;;;6.90;;
74670;SDS011;63196;39.564;2.628;2022-11-02T08:09:59;14.30;;;7.00;;
74670;SDS011;63196;39.564;2.628;2022-11-02T08:12:25;14.40;;;6.80;;
74670;SDS011;63196;39.564;2.628;2022-11-02T08:14:51;13.60;;;6.20;;
74670;SDS011;63196;39.564;2.628;2022-11-02T08:17:16;12.40;;;7.00;;
74670;SDS011;63196;39.564;2.628;2022-11-02T08:19:41;13.00;;;7.50;;
74670;SDS011;63196;39.564;2.628;2022-11-02T08:22:07;11.80;;;6.30;;
74670;SDS011;63196;39.564;2.628;2022-11-02T08:24:32;15.30;;;7.50;;
74670;SDS011;63196;39.564;2.628;2022-11-02T08:26:57;16.90;;;7.40;;
74670;SDS011;63196;39.564;2.628;2022-11-02T08:29:23;11.20;;;6.40;;
74670;SDS011;63196;39.564;2.628;2022-11-02T08:31:48;16.00;;;7.00;;
74670;SDS011;63196;39.564;2.628;2022-11-02T08:34:13;13.40;;;6.90;;
74670;SDS011;63196;39.564;2.628;2022-11-02T08:36:39;12.50;;;7.20;;
74670;SDS011;63196;39.564;2.628;2022-11-02T08:39:04;16.60;;;7.80;;
74670;SDS011;63196;39.564;2.628;2022-11-02T08:41:30;16.70;;;7.50;;
74670;SDS011;63196;39.564;2.628;2022-11-02T08:43:55;12.50;;;6.10;;
74670;SDS011;63196;39.564;2.628;2022-11-02T08:46:21;14.70;;;6.40;;
74670;SDS011;63196;39.564;2.628;2022-11-02T08:48:47;10.80;;;6.80;;
74670;SDS011;63196;39.564;2.628;2022-11-02T08:51:13;12.00;;;6.40;;
74670;SDS011;63196;39.564;2.628;2022-11-02T08:53:38;12.70;;;7.60;;
74670;SDS011;63196;39.564;2.628;2022-11-02T08:56:03;13.20;;;7.10;;
74670;SDS011;63196;39.564;2.628;2022-11-02T08:58:29;16.50;;;6.30;;
74670;SDS011;63196;39.564;2.628;2022-11-02T09:00:54;14.90;;;6.30;;
74670;SDS011;63196;39.564;2.628;2022-11-02T09:03:20;14.80;;;6.90;;
74670;SDS011;63196;39.564;2.628;2022-11-02T09:05:48;11.60;;;6.70;;
74670;SDS011;63196;39.564;2.628;2022-11-02T09:08:17;15.20;;;7.40;;
74670;SDS011;63196;39.564;2.628;2022-11-02T09:10:49;13.10;;;6.30;;
74670;SDS011;63196;39.564;2.628;2022-11-02T09:13:15;11.00;;;5.70;;
74670;SDS011;63196;39.564;2.628;2022-11-02T09:15:47;11.90;;;6.00;;
74670;SDS011;63196;39.564;2.628;2022-11-02T09:18:13;12.40;;;6.20;;
74670;SDS011;63196;39.564;2.628;2022-11-02T09:20:39;13.10;;;6.10;;
74670;SDS011;63196;39.564;2.628;2022-11-02T09:23:04;12.50;;;6.00;;
74670;SDS011;63196;39.564;2.628;2022-11-02T09:25:30;13.20;;;5.70;;
74670;SDS011;63196;39.564;2.628;2022-11-02T09:27:56;13.60;;;5.30;;
74670;SDS011;63196;39.564;2.628;2022-11-02T09:30:22;13.80;;;5.60;;
74670;SDS011;63196;39.564;2.628;2022-11-02T09:32:54;14.70;;;5.90;;
74670;SDS011;63196;39.564;2.628;2022-11-02T09:35:20;13.50;;;5.80;;
74670;SDS011;63196;39.564;2.628;2022-11-02T09:37:45;10.80;;;5.40;;
74670;SDS011;63196;39.564;2.628;2022-11-02T09:40:18;10.90;;;4.90;;
74670;SDS011;63196;39.564;2.628;2022-11-02T09:43:03;10.60;;;5.00;;
74670;SDS011;63196;39.564;2.628;2022-11-02T09:45:31;12.70;;;5.10;;
74670;SDS011;63196;39.564;2.628;2022-11-02T09:48:02;11.00;;;5.50;;
74670;SDS011;63196;39.564;2.628;2022-11-02T09:50:40;10.30;;;4.70;;
74670;SDS011;63196;39.564;2.628;2022-11-02T09:53:08;9.20;;;4.60;;
74670;SDS011;63196;39.564;2.628;2022-11-02T09:55:35;12.50;;;4.90;;
74670;SDS011;63196;39.564;2.628;2022-11-02T09:58:02;11.60;;;4.80;;
74670;SDS011;63196;39.564;2.628;2022-11-02T10:00:31;12.20;;;4.90;;
74670;SDS011;63196;39.564;2.628;2022-11-02T10:03:19;9.00;;;4.20;;
74670;SDS011;63196;39.564;2.628;2022-11-02T10:06:02;10.90;;;4.40;;
74670;SDS011;63196;39.564;2.628;2022-11-02T10:15:53;7.90;;;4.30;;
74670;SDS011;63196;39.564;2.628;2022-11-02T10:18:23;9.80;;;3.70;;
74670;SDS011;63196;39.564;2.628;2022-11-02T10:20:52;10.90;;;3.70;;
74670;SDS011;63196;39.564;2.628;2022-11-02T10:23:35;9.40;;;3.90;;
74670;SDS011;63196;39.564;2.628;2022-11-02T10:26:02;8.60;;;4.50;;
74670;SDS011;63196;39.564;2.628;2022-11-02T10:28:33;9.20;;;3.90;;
74670;SDS011;63196;39.564;2.628;2022-11-02T10:31:00;8.90;;;3.70;;
74670;SDS011;63196;39.564;2.628;2022-11-02T10:33:27;7.90;;;3.50;;
74670;SDS011;63196;39.564;2.628;2022-11-02T10:49:54;10.30;;;4.00;;
74670;SDS011;63196;39.564;2.628;2022-11-02T10:51:53;9.50;;;4.70;;
74670;SDS011;63196;39.564;2.628;2022-11-02T10:54:18;8.50;;;4.30;;
74670;SDS011;63196;39.564;2.628;2022-11-02T10:56:44;9.60;;;4.70;;
74670;SDS011;63196;39.564;2.628;2022-11-02T10:59:19;10.00;;;3.50;;
74670;SDS011;63196;39.564;2.628;2022-11-02T11:04:28;8.60;;;4.00;;
74670;SDS011;63196;39.564;2.628;2022-11-02T11:06:54;9.20;;;5.20;;
74670;SDS011;63196;39.564;2.628;2022-11-02T11:11:55;8.80;;;4.30;;
74670;SDS011;63196;39.564;2.628;2022-11-02T11:14:22;9.40;;;4.30;;
74670;SDS011;63196;39.564;2.628;2022-11-02T11:16:53;10.20;;;5.50;;
74670;SDS011;63196;39.564;2.628;2022-11-02T11:19:38;6.70;;;3.90;;
74670;SDS011;63196;39.564;2.628;2022-11-02T11:27:46;9.00;;;4.00;;
74670;SDS011;63196;39.564;2.628;2022-11-02T11:30:23;9.30;;;3.80;;
74670;SDS011;63196;39.564;2.628;2022-11-02T11:32:48;8.80;;;3.50;;
74670;SDS011;63196;39.564;2.628;2022-11-02T11:35:14;10.50;;;4.20;;
74670;SDS011;63196;39.564;2.628;2022-11-02T11:37:52;11.90;;;3.90;;
74670;SDS011;63196;39.564;2.628;2022-11-02T11:40:19;7.80;;;3.50;;
74670;SDS011;63196;39.564;2.628;2022-11-02T11:42:45;9.40;;;4.30;;
74670;SDS011;63196;39.564;2.628;2022-11-02T11:45:22;9.20;;;3.90;;
74670;SDS011;63196;39.564;2.628;2022-11-02T11:47:52;9.10;;;3.70;;
74670;SDS011;63196;39.564;2.628;2022-11-02T11:50:18;8.10;;;4.20;;
74670;SDS011;63196;39.564;2.628;2022-11-02T11:52:44;8.70;;;3.30;;
74670;SDS011;63196;39.564;2.628;2022-11-02T11:57:44;9.10;;;3.50;;
74670;SDS011;63196;39.564;2.628;2022-11-02T12:00:28;8.30;;;4.00;;
74670;SDS011;63196;39.564;2.628;2022-11-02T12:03:01;7.10;;;4.00;;
74670;SDS011;63196;39.564;2.628;2022-11-02T12:05:26;6.80;;;3.40;;
74670;SDS011;63196;39.564;2.628;2022-11-02T12:10:22;10.40;;;4.00;;
74670;SDS011;63196;39.564;2.628;2022-11-02T12:12:56;7.30;;;2.80;;
74670;SDS011;63196;39.564;2.628;2022-11-02T12:28:36;7.10;;;3.60;;
74670;SDS011;63196;39.564;2.628;2022-11-02T12:36:30;10.20;;;3.90;;
74670;SDS011;63196;39.564;2.628;2022-11-02T12:44:05;8.90;;;2.70;;
74670;SDS011;63196;39.564;2.628;2022-11-02T12:46:42;9.60;;;3.40;;
74670;SDS011;63196;39.564;2.628;2022-11-02T12:49:19;9.60;;;3.70;;
74670;SDS011;63196;39.564;2.628;2022-11-02T12:51:56;10.80;;;4.00;;
74670;SDS011;63196;39.564;2.628;2022-11-02T12:54:46;8.90;;;3.60;;
74670;SDS011;63196;39.564;2.628;2022-11-02T12:57:13;10.00;;;3.50;;
74670;SDS011;63196;39.564;2.628;2022-11-02T12:59:39;7.30;;;3.40;;
74670;SDS011;63196;39.564;2.628;2022-11-02T13:04:35;9.20;;;3.40;;
74670;SDS011;63196;39.564;2.628;2022-11-02T13:07:07;10.90;;;3.70;;
74670;SDS011;63196;39.564;2.628;2022-11-02T13:09:44;9.20;;;3.80;;
74670;SDS011;63196;39.564;2.628;2022-11-02T13:12:15;7.80;;;4.00;;
74670;SDS011;63196;39.564;2.628;2022-11-02T13:14:42;8.10;;;3.70;;
74670;SDS011;63196;39.564;2.628;2022-11-02T13:17:10;8.60;;;4.40;;
74670;SDS011;63196;39.564;2.628;2022-11-02T13:19:44;9.20;;;3.30;;
74670;SDS011;63196;39.564;2.628;2022-11-02T13:22:12;7.50;;;3.70;;
74670;SDS011;63196;39.564;2.628;2022-11-02T13:24:39;9.70;;;3.60;;
74670;SDS011;63196;39.564;2.628;2022-11-02T13:27:12;9.10;;;4.00;;
74670;SDS011;63196;39.564;2.628;2022-11-02T13:29:44;6.60;;;3.10;;
74670;SDS011;63196;39.564;2.628;2022-11-02T13:32:21;8.40;;;3.30;;
74670;SDS011;63196;39.564;2.628;2022-11-02T13:34:48;7.70;;;3.70;;
74670;SDS011;63196;39.564;2.628;2022-11-02T13:37:19;12.10;;;3.80;;
74670;SDS011;63196;39.564;2.628;2022-11-02T13:39:48;7.30;;;3.50;;
74670;SDS011;63196;39.564;2.628;2022-11-02T13:44:55;7.60;;;3.90;;
74670;SDS011;63196;39.564;2.628;2022-11-02T13:49:59;10.50;;;3.90;;
74670;SDS011;63196;39.564;2.628;2022-11-02T13:52:39;11.00;;;4.50;;
74670;SDS011;63196;39.564;2.628;2022-11-02T13:55:07;7.50;;;4.10;;
74670;SDS011;63196;39.564;2.628;2022-11-02T13:57:35;10.20;;;4.30;;
74670;SDS011;63196;39.564;2.628;2022-11-02T14:00:25;12.50;;;4.50;;
74670;SDS011;63196;39.564;2.628;2022-11-02T14:02:54;7.30;;;3.20;;
74670;SDS011;63196;39.564;2.628;2022-11-02T14:05:43;8.20;;;4.10;;
74670;SDS011;63196;39.564;2.628;2022-11-02T14:08:08;8.20;;;3.30;;
74670;SDS011;63196;39.564;2.628;2022-11-02T14:10:36;9.40;;;3.70;;
74670;SDS011;63196;39.564;2.628;2022-11-02T14:20:44;7.60;;;3.40;;
74670;SDS011;63196;39.564;2.628;2022-11-02T14:25:55;10.20;;;3.90;;
74670;SDS011;63196;39.564;2.628;2022-11-02T14:41:21;14.30;;;4.50;;
74670;SDS011;63196;39.564;2.628;2022-11-02T14:48:50;11.80;;;4.10;;
74670;SDS011;63196;39.564;2.628;2022-11-02T14:51:20;9.00;;;4.00;;
74670;SDS011;63196;39.564;2.628;2022-11-02T14:53:48;10.70;;;4.80;;
74670;SDS011;63196;39.564;2.628;2022-11-02T14:56:18;7.90;;;3.20;;
74670;SDS011;63196;39.564;2.628;2022-11-02T14:58:51;8.40;;;3.70;;
74670;SDS011;63196;39.564;2.628;2022-11-02T15:01:18;10.50;;;4.70;;
74670;SDS011;63196;39.564;2.628;2022-11-02T15:03:44;8.50;;;4.40;;
74670;SDS011;63196;39.564;2.628;2022-11-02T15:08:48;13.70;;;4.90;;
74670;SDS011;63196;39.564;2.628;2022-11-02T15:13:58;12.20;;;5.50;;
74670;SDS011;63196;39.564;2.628;2022-11-02T15:16:23;10.70;;;4.20;;
74670;SDS011;63196;39.564;2.628;2022-11-02T15:18:48;8.90;;;4.30;;
74670;SDS011;63196;39.564;2.628;2022-11-02T15:28:50;10.90;;;5.80;;
74670;SDS011;63196;39.564;2.628;2022-11-02T15:31:19;12.90;;;3.90;;
74670;SDS011;63196;39.564;2.628;2022-11-02T15:33:46;12.10;;;6.10;;
74670;SDS011;63196;39.564;2.628;2022-11-02T15:36:23;14.20;;;5.10;;
74670;SDS011;63196;39.564;2.628;2022-11-02T15:38:51;9.20;;;4.80;;
74670;SDS011;63196;39.564;2.628;2022-11-02T15:41:20;12.00;;;4.50;;
74670;SDS011;63196;39.564;2.628;2022-11-02T15:44:04;9.00;;;5.30;;
74670;SDS011;63196;39.564;2.628;2022-11-02T15:54:03;12.00;;;5.80;;
74670;SDS011;63196;39.564;2.628;2022-11-02T15:56:34;10.00;;;5.10;;
74670;SDS011;63196;39.564;2.628;2022-11-02T15:59:20;12.20;;;5.60;;
74670;SDS011;63196;39.564;2.628;2022-11-02T16:04:34;8.70;;;4.20;;
74670;SDS011;63196;39.564;2.628;2022-11-02T16:07:03;7.80;;;4.50;;
74670;SDS011;63196;39.564;2.628;2022-11-02T16:09:33;12.30;;;5.70;;
74670;SDS011;63196;39.564;2.628;2022-11-02T16:12:16;11.80;;;5.40;;
74670;SDS011;63196;39.564;2.628;2022-11-02T16:17:25;11.10;;;4.70;;
74670;SDS011;63196;39.564;2.628;2022-11-02T16:19:51;14.20;;;5.20;;
74670;SDS011;63196;39.564;2.628;2022-11-02T16:22:23;17.90;;;5.40;;
74670;SDS011;63196;39.564;2.628;2022-11-02T16:24:50;9.40;;;4.70;;
74670;SDS011;63196;39.564;2.628;2022-11-02T16:27:16;8.80;;;4.60;;
74670;SDS011;63196;39.564;2.628;2022-11-02T16:29:42;8.80;;;4.10;;
74670;SDS011;63196;39.564;2.628;2022-11-02T16:32:10;11.10;;;5.00;;
74670;SDS011;63196;39.564;2.628;2022-11-02T16:34:36;7.10;;;4.30;;
74670;SDS011;63196;39.564;2.628;2022-11-02T16:37:03;10.80;;;4.90;;
74670;SDS011;63196;39.564;2.628;2022-11-02T16:39:31;10.40;;;4.90;;
74670;SDS011;63196;39.564;2.628;2022-11-02T16:42:06;10.10;;;3.90;;
74670;SDS011;63196;39.564;2.628;2022-11-02T16:44:31;10.60;;;5.80;;
74670;SDS011;63196;39.564;2.628;2022-11-02T16:46:58;10.20;;;5.00;;
74670;SDS011;63196;39.564;2.628;2022-11-02T16:49:25;9.90;;;4.80;;
74670;SDS011;63196;39.564;2.628;2022-11-02T16:51:52;13.40;;;5.80;;
74670;SDS011;63196;39.564;2.628;2022-11-02T16:54:28;10.20;;;4.70;;
74670;SDS011;63196;39.564;2.628;2022-11-02T16:56:54;9.70;;;5.10;;
74670;SDS011;63196;39.564;2.628;2022-11-02T16:59:21;8.60;;;4.30;;
74670;SDS011;63196;39.564;2.628;2022-11-02T17:01:48;9.30;;;4.60;;
74670;SDS011;63196;39.564;2.628;2022-11-02T17:06:45;9.30;;;4.10;;
74670;SDS011;63196;39.564;2.628;2022-11-02T17:11:49;10.40;;;5.20;;
74670;SDS011;63196;39.564;2.628;2022-11-02T17:14:16;10.30;;;4.20;;
74670;SDS011;63196;39.564;2.628;2022-11-02T17:22:09;10.40;;;5.60;;